Cheongju International Airport


Codes: RKTU/CJJ
Name: Cheongju International Airport
City: Cheongju
Country: South Korea
Elevation: 191 ft.
Website:
Wikipedia:

Photos at Cheongju International Airport


   Photos courtesy of SpottingLog. You can add your own sightings and photos by signing up for a free trial today.



No photos found.

Weather at Cheongju International Airport


Time (UTC)DescriptionTempratureWindCloud coverageVisibilityPressureHumidity
17-Jun-2024 06:00Overcast Clouds28°C4 mph, W100%10000m1007hPa41%
17-Jun-2024 09:00Overcast Clouds25°C7 mph, NW100%10000m1007hPa56%
17-Jun-2024 12:00Overcast Clouds20°C0 mph, NW100%10000m1007hPa65%
17-Jun-2024 15:00Broken Clouds18°C2 mph, N67%10000m1007hPa74%
17-Jun-2024 18:00Broken Clouds16°C2 mph, SW80%10000m1007hPa81%
17-Jun-2024 21:00Few Clouds16°C2 mph, S12%10000m1008hPa82%
18-Jun-2024 00:00Clear Sky23°C4 mph, SW6%10000m1009hPa60%
18-Jun-2024 03:00Clear Sky29°C7 mph, NW0%10000m1007hPa41%
18-Jun-2024 06:00Clear Sky31°C9 mph, NW0%10000m1006hPa35%
18-Jun-2024 09:00Clear Sky27°C7 mph, NW0%10000m1006hPa54%
18-Jun-2024 12:00Clear Sky20°C2 mph, N0%10000m1008hPa75%
18-Jun-2024 15:00Clear Sky19°C2 mph, SW4%10000m1010hPa85%
18-Jun-2024 18:00Scattered Clouds18°C2 mph, E37%10000m1010hPa87%
18-Jun-2024 21:00Overcast Clouds19°C0 mph, E100%10000m1010hPa83%
19-Jun-2024 00:00Overcast Clouds26°C2 mph, N100%10000m1010hPa58%
19-Jun-2024 03:00Overcast Clouds31°C2 mph, N100%10000m1009hPa39%
19-Jun-2024 06:00Overcast Clouds33°C4 mph, NW100%10000m1007hPa36%
19-Jun-2024 09:00Few Clouds32°C2 mph, NW14%10000m1006hPa46%
19-Jun-2024 12:00Broken Clouds24°C2 mph, NW58%10000m1007hPa65%
19-Jun-2024 15:00Broken Clouds21°C2 mph, W71%10000m1008hPa65%
19-Jun-2024 18:00Overcast Clouds20°C2 mph, S86%10000m1008hPa64%
19-Jun-2024 21:00Overcast Clouds20°C2 mph, E99%10000m1008hPa73%
20-Jun-2024 00:00Overcast Clouds27°C2 mph, SE100%10000m1007hPa56%
20-Jun-2024 03:00Overcast Clouds32°C2 mph, W100%10000m1006hPa43%
20-Jun-2024 06:00Overcast Clouds34°C7 mph, W100%10000m1004hPa36%
20-Jun-2024 09:00Overcast Clouds29°C9 mph, W100%10000m1003hPa55%
20-Jun-2024 12:00Overcast Clouds23°C2 mph, NW100%10000m1004hPa58%
20-Jun-2024 15:00Overcast Clouds20°C2 mph, NW99%10000m1005hPa64%
20-Jun-2024 18:00Broken Clouds18°C0 mph, SE66%10000m1004hPa72%
20-Jun-2024 21:00Overcast Clouds19°C2 mph, NE98%10000m1004hPa76%
21-Jun-2024 00:00Broken Clouds26°C2 mph, NW71%10000m1004hPa54%
21-Jun-2024 03:00Broken Clouds31°C4 mph, N75%10000m1003hPa41%
21-Jun-2024 06:00Scattered Clouds34°C7 mph, N39%10000m1001hPa37%
21-Jun-2024 09:00Clear Sky31°C9 mph, NW3%10000m1001hPa50%
21-Jun-2024 12:00Scattered Clouds24°C0 mph, N47%10000m1005hPa68%
21-Jun-2024 15:00Overcast Clouds23°C2 mph, E100%10000m1006hPa69%
21-Jun-2024 18:00Overcast Clouds21°C4 mph, NE87%10000m1007hPa79%
21-Jun-2024 21:00Overcast Clouds21°C4 mph, E99%10000m1008hPa82%
22-Jun-2024 00:00Broken Clouds27°C4 mph, E67%10000m1008hPa57%
22-Jun-2024 03:00Broken Clouds32°C7 mph, SE58%10000m1007hPa41%